createdAt,value
2019-05-23T00:01:20.792Z,83.98
2019-05-23T00:03:59.488Z,84.08
2019-05-23T00:06:31.603Z,83.95
2019-05-23T00:09:03.819Z,84.28
2019-05-23T00:11:57.449Z,84.70
2019-05-23T00:14:46.840Z,84.70
2019-05-23T00:17:20.953Z,84.64
2019-05-23T00:19:52.532Z,84.95
2019-05-23T00:22:23.779Z,84.91
2019-05-23T00:24:56.180Z,85.10
2019-05-23T00:27:27.579Z,85.30
2019-05-23T00:30:01.382Z,85.40
2019-05-23T00:32:38.883Z,85.56
2019-05-23T00:35:12.564Z,85.78
2019-05-23T00:37:46.663Z,85.96
2019-05-23T00:40:19.598Z,86.35
2019-05-23T00:42:52.016Z,86.89
2019-05-23T00:45:24.367Z,87.06
2019-05-23T00:47:57.550Z,87.24
2019-05-23T00:50:30.236Z,87.37
2019-05-23T00:53:02.401Z,87.94
2019-05-23T00:55:35.279Z,87.73
2019-05-23T00:58:08.123Z,87.70
2019-05-23T01:00:40.555Z,87.80
2019-05-23T01:03:13.546Z,88.06
2019-05-23T01:05:45.052Z,88.31
2019-05-23T01:08:17.241Z,88.18
2019-05-23T01:10:50.066Z,88.17
2019-05-23T01:13:23.820Z,88.22
2019-05-23T01:15:56.924Z,88.33
2019-05-23T01:18:28.291Z,88.38
2019-05-23T01:21:18.916Z,88.68
2019-05-23T01:23:57.968Z,89.06
2019-05-23T01:26:30.590Z,89.41
2019-05-23T01:29:02.269Z,89.39
2019-05-23T01:31:38.100Z,89.35
2019-05-23T01:34:11.847Z,89.52
2019-05-23T01:36:43.887Z,89.65
2019-05-23T01:39:15.585Z,89.92
2019-05-23T01:41:46.900Z,90.13
2019-05-23T01:44:18.802Z,90.27
2019-05-23T01:46:50.668Z,90.35
2019-05-23T01:49:22.522Z,90.45
2019-05-23T01:51:54.091Z,90.47
2019-05-23T01:54:25.578Z,90.44
2019-05-23T01:56:57.045Z,90.62
2019-05-23T01:59:28.677Z,91.06
2019-05-23T02:02:00.254Z,91.22
2019-05-23T02:04:32.213Z,91.13
2019-05-23T02:07:03.568Z,90.91
2019-05-23T02:09:34.993Z,90.82
2019-05-23T02:12:12.082Z,90.88
2019-05-23T02:14:46.177Z,91.09
2019-05-23T02:17:17.399Z,91.08
2019-05-23T02:19:49.616Z,91.09
2019-05-23T02:22:21.422Z,91.37
2019-05-23T02:24:53.661Z,91.18
2019-05-23T02:27:27.126Z,91.35
2019-05-23T02:29:58.552Z,91.67
2019-05-23T02:32:31.270Z,91.79
2019-05-23T02:35:03.872Z,91.71
2019-05-23T02:37:50.791Z,91.58
2019-05-23T02:40:30.235Z,91.66
2019-05-23T02:43:04.985Z,91.83
2019-05-23T02:45:43.596Z,91.91
2019-05-23T02:48:22.126Z,91.83
2019-05-23T02:51:00.193Z,91.74
2019-05-23T02:53:35.654Z,91.69
2019-05-23T02:56:11.982Z,91.90
2019-05-23T02:59:10.381Z,91.97
2019-05-23T03:02:33.238Z,92.00
2019-05-23T03:05:07.140Z,91.93
2019-05-23T03:07:40.282Z,91.93
2019-05-23T03:10:13.869Z,92.20
2019-05-23T03:12:46.645Z,92.46
2019-05-23T03:15:19.648Z,92.57
2019-05-23T03:17:57.113Z,92.57
2019-05-23T03:20:30.937Z,92.38
2019-05-23T03:23:11.977Z,92.55
2019-05-23T03:26:55.750Z,92.82
2019-05-23T03:29:28.879Z,92.73
2019-05-23T03:32:12.243Z,92.73
2019-05-23T03:34:45.294Z,92.89
2019-05-23T03:37:17.825Z,93.24
2019-05-23T03:39:49.406Z,93.29
2019-05-23T03:42:21.221Z,93.32
2019-05-23T03:44:53.651Z,93.30
2019-05-23T03:47:27.561Z,93.39
2019-05-23T03:50:00.267Z,93.47
2019-05-23T03:52:33.143Z,93.55
2019-05-23T03:55:07.041Z,93.65
2019-05-23T03:57:39.468Z,93.82
2019-05-23T04:00:16.214Z,94.03
2019-05-23T04:02:49.033Z,94.15
2019-05-23T04:05:22.398Z,94.22
2019-05-23T04:07:53.507Z,94.26
2019-05-23T04:10:25.022Z,94.31
2019-05-23T04:12:56.659Z,94.36
2019-05-23T04:15:28.726Z,94.46
2019-05-23T04:18:00.108Z,94.65
2019-05-23T04:20:31.973Z,94.85
2019-05-23T04:23:04.561Z,95.02
2019-05-23T04:25:35.946Z,95.18
2019-05-23T04:28:07.428Z,95.22
2019-05-23T04:30:38.542Z,95.24
2019-05-23T04:33:10.649Z,95.21
2019-05-23T04:35:41.910Z,95.17
2019-05-23T04:38:13.231Z,95.14
2019-05-23T04:40:44.561Z,95.15
2019-05-23T04:43:16.052Z,95.14
2019-05-23T04:45:47.934Z,94.95
2019-05-23T04:48:19.823Z,94.66
2019-05-23T04:50:51.182Z,94.40
2019-05-23T04:53:22.821Z,94.25
2019-05-23T04:55:55.152Z,94.15
2019-05-23T04:58:26.822Z,94.07
2019-05-23T05:01:04.523Z,93.96
2019-05-23T05:03:36.876Z,93.89
2019-05-23T05:06:08.269Z,92.62
2019-05-23T05:08:39.945Z,92.05
2019-05-23T05:11:11.518Z,90.51
2019-05-23T05:13:44.367Z,90.31
2019-05-23T05:16:15.906Z,89.08
2019-05-23T05:18:47.293Z,88.36
2019-05-23T05:21:18.965Z,87.18
2019-05-23T05:23:50.341Z,86.60
2019-05-23T05:26:29.264Z,85.66
2019-05-23T05:29:06.125Z,84.83
2019-05-23T05:31:37.274Z,84.47
2019-05-23T05:34:10.889Z,80.03
2019-05-23T05:36:42.288Z,79.41
2019-05-23T05:39:14.250Z,72.67
2019-05-23T05:41:45.764Z,62.41
2019-05-23T05:44:17.300Z,58.82
2019-05-23T05:46:49.009Z,55.84
2019-05-23T05:49:20.312Z,53.76
2019-05-23T05:51:51.601Z,51.00
2019-05-23T05:54:23.321Z,47.69
2019-05-23T05:56:54.546Z,45.34
2019-05-23T05:59:25.861Z,44.45
2019-05-23T06:01:57.979Z,43.63
2019-05-23T06:04:29.253Z,45.22
2019-05-23T06:07:25.820Z,44.16
2019-05-23T06:09:58.685Z,43.73
2019-05-23T06:12:30.232Z,41.91
2019-05-23T06:15:01.479Z,44.37
2019-05-23T06:17:33.128Z,43.48
2019-05-23T06:20:04.969Z,43.66
2019-05-23T06:22:37.281Z,42.72
2019-05-23T06:27:42.598Z,40.26
2019-05-23T06:30:17.682Z,38.50
2019-05-23T06:32:49.218Z,38.77
2019-05-23T06:35:21.049Z,37.94
2019-05-23T06:37:52.922Z,38.19
2019-05-23T06:40:24.482Z,36.45
2019-05-23T06:42:55.975Z,38.05
2019-05-23T06:45:27.785Z,37.52
2019-05-23T06:47:59.652Z,39.25
2019-05-23T06:50:31.318Z,37.51
2019-05-23T06:53:02.941Z,38.05
2019-05-23T06:55:34.357Z,39.59
2019-05-23T06:58:06.936Z,40.01
2019-05-23T07:00:39.199Z,38.53
2019-05-23T07:03:10.574Z,39.26
2019-05-23T07:05:43.335Z,37.90
2019-05-23T07:08:14.701Z,39.16
2019-05-23T07:10:46.056Z,37.88
2019-05-23T07:13:17.964Z,38.36
2019-05-23T07:15:49.254Z,37.00
2019-05-23T07:18:20.473Z,36.62
2019-05-23T07:20:51.688Z,37.50
2019-05-23T07:23:23.411Z,40.38
2019-05-23T07:25:54.719Z,37.33
2019-05-23T07:28:26.140Z,37.75
2019-05-23T07:30:58.034Z,36.32
2019-05-23T07:33:29.505Z,36.15
2019-05-23T07:36:00.979Z,35.76
2019-05-23T07:38:32.231Z,34.54
2019-05-23T07:41:03.997Z,35.40
2019-05-23T07:43:35.289Z,35.94
2019-05-23T07:46:07.194Z,40.00
2019-05-23T07:48:39.168Z,40.22
2019-05-23T07:51:10.725Z,40.96
2019-05-23T07:53:59.719Z,41.24
2019-05-23T07:56:33.555Z,40.94
2019-05-23T07:59:05.564Z,41.46
2019-05-23T08:01:39.238Z,37.97
2019-05-23T08:04:21.410Z,35.68
2019-05-23T08:06:48.960Z,34.19
2019-05-23T08:09:20.115Z,35.72
2019-05-23T08:11:51.612Z,33.53
2019-05-23T08:14:22.879Z,30.93
2019-05-23T08:16:54.973Z,31.95
2019-05-23T08:19:26.506Z,31.31
2019-05-23T08:21:57.881Z,30.80
2019-05-23T08:24:29.576Z,29.76
2019-05-23T08:27:02.160Z,33.06
2019-05-23T08:29:33.307Z,32.15
2019-05-23T08:32:04.859Z,30.73
2019-05-23T08:34:41.432Z,30.91
2019-05-23T08:37:11.797Z,32.61
2019-05-23T08:39:43.333Z,31.72
2019-05-23T08:42:15.495Z,30.96
2019-05-23T08:44:48.782Z,30.99
2019-05-23T08:47:20.011Z,30.35
2019-05-23T08:49:51.378Z,29.20
2019-05-23T08:52:22.772Z,29.00
2019-05-23T08:54:59.983Z,29.85
2019-05-23T08:57:31.381Z,30.47
2019-05-23T09:00:02.730Z,30.22
2019-05-23T09:02:35.339Z,29.22
2019-05-23T09:05:08.628Z,30.14
2019-05-23T09:07:39.994Z,32.49
2019-05-23T09:10:11.335Z,34.61
2019-05-23T09:12:42.831Z,32.68
2019-05-23T09:15:14.969Z,30.24
2019-05-23T09:17:53.175Z,28.74
2019-05-23T09:20:19.682Z,32.87
2019-05-23T09:22:53.646Z,30.68
2019-05-23T09:25:24.985Z,31.56
2019-05-23T09:27:56.359Z,30.46
2019-05-23T09:30:28.623Z,27.52
2019-05-23T09:33:00.011Z,27.05
2019-05-23T09:35:31.634Z,28.52
2019-05-23T09:38:03.170Z,28.42
2019-05-23T09:40:35.339Z,29.44
2019-05-23T09:43:08.005Z,31.26
2019-05-23T09:45:39.242Z,30.55
2019-05-23T09:48:10.657Z,31.51
2019-05-23T09:50:42.023Z,30.40
2019-05-23T09:53:13.745Z,29.80
2019-05-23T09:55:45.248Z,29.48
2019-05-23T09:58:16.561Z,31.33
2019-05-23T10:00:47.989Z,32.00
2019-05-23T10:03:19.928Z,34.26
2019-05-23T10:05:54.490Z,34.29
2019-05-23T10:08:25.770Z,34.11
2019-05-23T10:10:59.961Z,33.43
2019-05-23T10:13:38.935Z,33.20
2019-05-23T10:16:07.247Z,35.61
2019-05-23T10:18:39.102Z,36.29
2019-05-23T10:21:10.952Z,36.97
2019-05-23T10:23:42.179Z,36.84
2019-05-23T10:26:14.176Z,35.52
2019-05-23T10:28:45.435Z,35.61
2019-05-23T10:31:17.285Z,34.72
2019-05-23T10:33:48.528Z,33.87
2019-05-23T10:36:20.423Z,33.74
2019-05-23T10:38:51.651Z,33.94
2019-05-23T10:41:23.042Z,35.38
2019-05-23T10:43:55.874Z,34.88
2019-05-23T10:46:27.239Z,35.30
2019-05-23T10:49:01.115Z,33.70
2019-05-23T10:51:32.349Z,34.68
2019-05-23T10:54:04.544Z,35.85
2019-05-23T10:56:36.002Z,34.35
2019-05-23T10:59:07.579Z,33.98
2019-05-23T11:01:39.699Z,33.40
2019-05-23T11:04:11.167Z,35.00
2019-05-23T11:06:43.251Z,36.28
2019-05-23T11:09:14.918Z,33.97
2019-05-23T11:11:46.310Z,32.75
2019-05-23T11:14:17.708Z,32.90
2019-05-23T11:16:49.079Z,33.11
2019-05-23T11:19:20.807Z,32.80
2019-05-23T11:21:52.021Z,33.01
2019-05-23T11:24:23.506Z,32.97
2019-05-23T11:26:57.249Z,33.40
2019-05-23T11:29:28.499Z,34.68
2019-05-23T11:32:01.610Z,34.45
2019-05-23T11:34:34.323Z,31.58
2019-05-23T11:37:05.739Z,32.90
2019-05-23T11:39:41.949Z,33.49
2019-05-23T11:42:10.740Z,32.15
2019-05-23T11:44:41.970Z,32.97
2019-05-23T11:47:14.338Z,32.47
2019-05-23T11:49:49.306Z,34.92
2019-05-23T11:52:20.669Z,35.82
2019-05-23T11:54:52.308Z,33.66
2019-05-23T11:57:26.596Z,33.05
2019-05-23T12:00:10.556Z,33.73
2019-05-23T12:02:43.231Z,34.18
2019-05-23T12:05:21.866Z,33.15
2019-05-23T12:07:53.242Z,31.86
2019-05-23T12:10:24.564Z,33.18
2019-05-23T12:12:55.915Z,37.21
2019-05-23T12:15:28.934Z,32.60
2019-05-23T12:18:03.184Z,33.92
2019-05-23T12:20:34.408Z,34.35
2019-05-23T12:23:10.681Z,34.94
2019-05-23T12:25:39.067Z,33.77
2019-05-23T12:28:11.912Z,33.32
2019-05-23T12:30:43.613Z,34.17
2019-05-23T12:33:15.314Z,33.18
2019-05-23T12:35:46.520Z,33.54
2019-05-23T12:38:17.800Z,32.82
2019-05-23T12:40:49.032Z,34.41
2019-05-23T12:43:20.202Z,34.51
2019-05-23T12:45:51.431Z,35.74
2019-05-23T12:48:34.532Z,34.95
2019-05-23T12:51:06.322Z,33.21
2019-05-23T12:53:37.791Z,34.79
2019-05-23T12:56:09.368Z,36.17
2019-05-23T12:58:41.644Z,33.48
2019-05-23T13:01:14.786Z,33.98
2019-05-23T13:03:46.815Z,31.48
2019-05-23T13:06:18.376Z,33.17
2019-05-23T13:08:49.727Z,31.35
2019-05-23T13:11:21.073Z,32.90
2019-05-23T13:13:52.305Z,34.36
2019-05-23T13:16:23.600Z,33.01
2019-05-23T13:18:54.721Z,32.88
2019-05-23T13:21:26.133Z,34.78
2019-05-23T13:23:57.452Z,35.06
2019-05-23T13:26:29.779Z,34.37
2019-05-23T13:29:01.154Z,34.07
2019-05-23T13:31:32.498Z,34.80
2019-05-23T13:34:06.668Z,35.34
2019-05-23T13:36:37.961Z,35.83
2019-05-23T13:39:13.484Z,34.54
2019-05-23T13:41:44.967Z,33.07
2019-05-23T13:44:32.879Z,34.61
2019-05-23T13:46:49.247Z,35.28
2019-05-23T13:49:24.832Z,35.45
2019-05-23T13:51:56.268Z,35.32
2019-05-23T13:54:27.680Z,33.92
2019-05-23T13:56:59.901Z,32.01
2019-05-23T13:59:34.448Z,31.83
2019-05-23T14:02:10.701Z,34.49
2019-05-23T14:04:42.342Z,32.23
2019-05-23T14:07:15.186Z,32.50
2019-05-23T14:09:46.666Z,33.16
2019-05-23T14:12:21.155Z,36.30
2019-05-23T14:14:51.173Z,35.14
2019-05-23T14:17:39.718Z,32.54
2019-05-23T14:20:11.284Z,31.94
2019-05-23T14:22:47.620Z,29.35
2019-05-23T14:25:22.226Z,33.09
2019-05-23T14:28:12.246Z,30.93
2019-05-23T14:31:01.056Z,31.87
2019-05-23T14:34:03.467Z,29.78
2019-05-23T14:36:52.406Z,29.52
2019-05-23T14:39:36.233Z,29.45
2019-05-23T14:42:26.298Z,28.55
2019-05-23T14:44:58.347Z,29.49
2019-05-23T14:48:03.397Z,29.04
2019-05-23T14:51:05.383Z,30.60
2019-05-23T14:53:39.345Z,32.60
2019-05-23T14:56:12.066Z,31.28
2019-05-23T14:58:43.512Z,28.59
2019-05-23T15:01:18.369Z,28.34
2019-05-23T15:03:50.136Z,27.95
2019-05-23T15:06:21.498Z,28.74
2019-05-23T15:08:52.933Z,29.65
2019-05-23T15:11:24.175Z,31.85
2019-05-23T15:13:56.051Z,31.52
2019-05-23T15:16:27.600Z,29.04
2019-05-23T15:19:01.962Z,30.94
2019-05-23T15:21:33.227Z,28.00
2019-05-23T15:24:04.654Z,30.57
2019-05-23T15:26:36.136Z,30.83
2019-05-23T15:29:08.073Z,27.69
2019-05-23T15:31:39.476Z,28.60
2019-05-23T15:34:10.840Z,28.63
2019-05-23T15:36:42.166Z,28.57
2019-05-23T15:39:13.431Z,28.10
2019-05-23T15:41:44.726Z,27.71
2019-05-23T15:44:26.666Z,30.75
2019-05-23T15:46:52.194Z,32.30
2019-05-23T15:49:23.645Z,33.66
2019-05-23T15:52:12.933Z,33.31
2019-05-23T15:54:57.669Z,29.96
2019-05-23T15:57:44.905Z,29.29
2019-05-23T16:00:33.935Z,29.67
2019-05-23T16:03:23.955Z,26.77
2019-05-23T16:05:56.127Z,28.36
2019-05-23T16:08:27.863Z,28.19
2019-05-23T16:10:59.933Z,26.55
2019-05-23T16:13:31.561Z,27.51
2019-05-23T16:16:04.126Z,27.44
2019-05-23T16:18:36.087Z,26.91
2019-05-23T16:21:07.343Z,29.56
2019-05-23T16:23:38.737Z,30.98
2019-05-23T16:26:11.775Z,32.57
2019-05-23T16:28:43.277Z,34.08
2019-05-23T16:31:15.846Z,34.86
2019-05-23T16:33:47.122Z,33.93
2019-05-23T16:36:22.707Z,35.59
2019-05-23T16:38:54.260Z,35.82
2019-05-23T16:41:34.890Z,37.55
2019-05-23T16:44:25.476Z,34.60
2019-05-23T16:47:03.508Z,35.84
2019-05-23T16:49:35.195Z,35.56
2019-05-23T16:52:07.148Z,37.54
2019-05-23T16:54:42.670Z,35.87
2019-05-23T16:57:31.968Z,34.21
2019-05-23T17:00:34.282Z,35.85
2019-05-23T17:03:27.072Z,36.75
2019-05-23T17:06:23.085Z,36.47
2019-05-23T17:09:13.115Z,35.66
2019-05-23T17:11:56.004Z,35.85
2019-05-23T17:14:32.450Z,34.37
2019-05-23T17:17:39.439Z,35.68
2019-05-23T17:20:26.694Z,37.11
2019-05-23T17:23:20.060Z,35.83
2019-05-23T17:25:58.359Z,37.03
2019-05-23T17:28:39.191Z,33.82
2019-05-23T17:31:14.130Z,33.63
2019-05-23T17:33:46.029Z,32.38
2019-05-23T17:36:17.703Z,31.92
2019-05-23T17:38:49.156Z,34.39
2019-05-23T17:41:20.871Z,34.70
2019-05-23T17:43:53.700Z,34.80
2019-05-23T17:46:28.353Z,32.09
2019-05-23T17:48:59.746Z,32.56
2019-05-23T17:51:31.303Z,32.88
2019-05-23T17:54:05.830Z,32.95
2019-05-23T17:56:37.294Z,31.69
2019-05-23T17:59:12.070Z,31.63
2019-05-23T18:01:44.045Z,31.71
2019-05-23T18:04:16.209Z,31.87
2019-05-23T18:07:01.204Z,33.04
2019-05-23T18:09:33.397Z,33.02
2019-05-23T18:12:07.331Z,32.59
2019-05-23T18:14:39.348Z,32.52
2019-05-23T18:17:13.247Z,32.27
2019-05-23T18:19:45.228Z,33.13
2019-05-23T18:22:17.446Z,33.40
2019-05-23T18:24:49.165Z,32.18
2019-05-23T18:27:20.958Z,32.53
2019-05-23T18:29:53.204Z,32.64
2019-05-23T18:32:26.819Z,33.57
2019-05-23T18:34:58.741Z,33.91
2019-05-23T18:37:30.245Z,34.84
2019-05-23T18:40:02.647Z,34.11
2019-05-23T18:42:36.286Z,35.43
2019-05-23T18:45:09.847Z,35.81
2019-05-23T18:47:45.114Z,35.79
2019-05-23T18:50:19.095Z,36.59
2019-05-23T18:52:52.097Z,36.72
2019-05-23T18:55:24.467Z,36.42
2019-05-23T18:57:57.201Z,37.04
2019-05-23T19:01:20.496Z,37.79
2019-05-23T19:03:52.666Z,36.92
2019-05-23T19:06:24.447Z,38.24
2019-05-23T19:08:56.908Z,37.54
2019-05-23T19:11:28.801Z,38.69
2019-05-23T19:14:01.985Z,37.79
2019-05-23T19:16:35.732Z,37.59
2019-05-23T19:19:08.331Z,37.61
2019-05-23T19:21:40.704Z,39.16
2019-05-23T19:24:12.291Z,38.05
2019-05-23T19:26:44.824Z,38.60
2019-05-23T19:29:18.158Z,39.30
2019-05-23T19:31:49.675Z,39.74
2019-05-23T19:34:21.469Z,40.19
2019-05-23T19:36:52.658Z,40.07
2019-05-23T19:39:26.891Z,38.68
2019-05-23T19:41:58.293Z,39.05
2019-05-23T19:44:30.163Z,39.33
2019-05-23T19:47:03.653Z,39.85
2019-05-23T19:49:36.958Z,40.83
2019-05-23T19:52:08.877Z,41.35
2019-05-23T19:54:40.527Z,41.89
2019-05-23T19:57:12.194Z,42.28
2019-05-23T19:59:43.663Z,42.43
2019-05-23T20:02:43.004Z,43.08
2019-05-23T20:05:21.251Z,43.80
2019-05-23T20:07:52.642Z,45.89
2019-05-23T20:10:24.157Z,47.53
2019-05-23T20:12:55.460Z,46.80
2019-05-23T20:15:26.969Z,46.56
2019-05-23T20:17:58.256Z,47.85
2019-05-23T20:20:30.099Z,48.75
2019-05-23T20:23:01.580Z,48.63
2019-05-23T20:25:34.062Z,49.13
2019-05-23T20:28:05.957Z,51.67
2019-05-23T20:31:03.877Z,52.94
2019-05-23T20:33:35.630Z,53.51
2019-05-23T20:36:12.777Z,52.60
2019-05-23T20:38:46.380Z,52.48
2019-05-23T20:41:18.398Z,51.67
2019-05-23T20:43:49.736Z,52.11
2019-05-23T20:46:21.216Z,51.54
2019-05-23T20:48:52.463Z,52.08
2019-05-23T20:51:25.342Z,52.12
2019-05-23T20:53:56.502Z,52.15
2019-05-23T20:56:31.025Z,52.23
2019-05-23T20:59:02.286Z,51.33
2019-05-23T21:01:38.306Z,51.53
2019-05-23T21:04:09.643Z,51.79
2019-05-23T21:06:40.894Z,52.70
2019-05-23T21:09:15.556Z,52.83
2019-05-23T21:11:45.504Z,53.10
2019-05-23T21:14:17.042Z,53.73
2019-05-23T21:16:51.318Z,54.29
2019-05-23T21:19:22.654Z,54.42
2019-05-23T21:21:54.077Z,55.98
2019-05-23T21:24:25.526Z,55.89
2019-05-23T21:26:57.092Z,55.60
2019-05-23T21:29:28.368Z,55.91
2019-05-23T21:31:59.690Z,56.51
2019-05-23T21:34:33.191Z,56.55
2019-05-23T21:37:04.782Z,56.99
2019-05-23T21:39:36.176Z,57.21
2019-05-23T21:42:07.531Z,57.12
2019-05-23T21:44:38.894Z,57.34
2019-05-23T21:47:10.418Z,57.31
2019-05-23T21:49:41.882Z,57.81
2019-05-23T21:52:22.983Z,58.15
2019-05-23T21:54:54.459Z,57.67
2019-05-23T21:57:25.918Z,57.37
2019-05-23T21:59:57.879Z,57.86
2019-05-23T22:02:33.847Z,58.77
2019-05-23T22:05:17.814Z,60.14
2019-05-23T22:07:49.340Z,60.36
2019-05-23T22:10:20.784Z,60.46
2019-05-23T22:13:03.797Z,60.65
2019-05-23T22:15:39.246Z,60.46
2019-05-23T22:18:10.528Z,60.13
2019-05-23T22:20:41.779Z,59.48
2019-05-23T22:23:13.474Z,58.96
2019-05-23T22:25:44.747Z,58.84
2019-05-23T22:28:16.444Z,59.76
2019-05-23T22:30:47.646Z,60.44
2019-05-23T22:33:21.119Z,60.24
2019-05-23T22:35:52.498Z,60.40
2019-05-23T22:38:23.732Z,62.46
2019-05-23T22:40:54.968Z,62.77
2019-05-23T22:43:26.293Z,62.83
2019-05-23T22:45:57.542Z,61.88
2019-05-23T22:48:28.777Z,61.67
2019-05-23T22:50:59.918Z,61.26
2019-05-23T22:53:31.234Z,60.69
2019-05-23T22:56:02.478Z,60.69
2019-05-23T22:58:33.746Z,60.67
2019-05-23T23:01:04.976Z,62.40
2019-05-23T23:03:36.143Z,63.46
2019-05-23T23:06:07.613Z,63.92
2019-05-23T23:08:38.775Z,63.84
2019-05-23T23:11:10.356Z,63.89
2019-05-23T23:13:42.053Z,63.85
2019-05-23T23:16:13.479Z,63.30
2019-05-23T23:18:45.100Z,63.26
2019-05-23T23:21:16.240Z,62.87
2019-05-23T23:23:47.472Z,62.61
2019-05-23T23:26:18.715Z,62.00
2019-05-23T23:28:50.102Z,61.15
2019-05-23T23:31:21.527Z,61.34
2019-05-23T23:33:52.942Z,62.73
2019-05-23T23:36:24.219Z,63.62
2019-05-23T23:38:55.508Z,64.20
2019-05-23T23:41:26.711Z,63.29
2019-05-23T23:43:59.955Z,62.28
2019-05-23T23:46:48.063Z,61.76
2019-05-23T23:49:36.968Z,61.94
2019-05-23T23:52:25.618Z,62.80
2019-05-23T23:55:14.899Z,63.50
2019-05-23T23:58:00.040Z,63.89
